Time;durP1;ratioP1;P1;durP2;ratioP2;P2;SDS_P1;SDS_P2;PMS_P1;PMS_P2;Temp;Humidity;BMP_temperature;BMP_pressure;BME280_temperature;BME280_humidity;BME280_pressure;Samples;Min_cycle;Max_cycle;Signal;HPM_P1;HPM_P2
2024/01/21 00:00:56;;;;;;;19.00;10.57;;;;;;;;;;5020787;28;20198;-66
2024/01/21 00:03:23;;;;;;;18.70;11.20;;;;;;;;;;5020051;28;20460;-66
2024/01/21 00:05:50;;;;;;;19.43;12.03;;;;;;;;;;5018971;28;20215;-66
2024/01/21 00:08:17;;;;;;;22.03;11.73;;;;;;;;;;5018651;28;20668;-66
2024/01/21 00:10:46;;;;;;;18.57;11.43;;;;;;;;;;5021598;28;20205;-66
2024/01/21 00:13:13;;;;;;;17.10;11.13;;;;;;;;;;5023210;28;20209;-66
2024/01/21 00:15:40;;;;;;;18.77;11.20;;;;;;;;;;5023504;28;20205;-66
2024/01/21 00:18:07;;;;;;;22.10;13.27;;;;;;;;;;5018620;28;20203;-66
2024/01/21 00:20:34;;;;;;;19.37;11.77;;;;;;;;;;5020718;28;20204;-66
2024/01/21 00:23:01;;;;;;;18.20;11.20;;;;;;;;;;5018940;28;20235;-69
2024/01/21 00:25:28;;;;;;;16.53;10.50;;;;;;;;;;5020007;28;20227;-70
2024/01/21 00:27:57;;;;;;;17.00;11.10;;;;;;;;;;5018988;28;20198;-70
2024/01/21 00:30:24;;;;;;;19.37;11.10;;;;;;;;;;5018566;28;20197;-70
2024/01/21 00:32:51;;;;;;;22.73;13.60;;;;;;;;;;5017458;28;20489;-69
2024/01/21 00:35:19;;;;;;;25.43;13.67;;;;;;;;;;5020703;28;20195;-69
2024/01/21 00:37:46;;;;;;;22.67;13.43;;;;;;;;;;5017720;28;20197;-69
2024/01/21 00:40:13;;;;;;;23.93;13.07;;;;;;;;;;5017781;28;20297;-69
2024/01/21 00:42:40;;;;;;;22.00;12.47;;;;;;;;;;5018838;28;20197;-69
2024/01/21 00:45:09;;;;;;;21.10;12.27;;;;;;;;;;5017525;28;20211;-69
2024/01/21 00:47:36;;;;;;;22.57;13.07;;;;;;;;;;5023428;28;20192;-69
2024/01/21 00:50:03;;;;;;;24.43;13.10;;;;;;;;;;5019135;28;20193;-69
2024/01/21 00:52:30;;;;;;;24.23;13.43;;;;;;;;;;5018761;28;20313;-69
2024/01/21 00:54:57;;;;;;;19.97;12.00;;;;;;;;;;5020641;28;20205;-69
2024/01/21 00:57:24;;;;;;;23.63;13.17;;;;;;;;;;5018616;28;20203;-69
2024/01/21 00:59:52;;;;;;;22.33;12.83;;;;;;;;;;5017314;28;20198;-69
2024/01/21 01:02:20;;;;;;;18.00;11.63;;;;;;;;;;5020776;28;20237;-69
2024/01/21 01:04:48;;;;;;;19.33;11.97;;;;;;;;;;5017239;28;20217;-69
2024/01/21 01:07:15;;;;;;;21.13;12.60;;;;;;;;;;5017824;28;20197;-69
2024/01/21 01:09:42;;;;;;;19.83;11.20;;;;;;;;;;5019138;28;20204;-69
2024/01/21 01:12:10;;;;;;;20.27;12.00;;;;;;;;;;5014678;28;20194;-69
2024/01/21 01:14:40;;;;;;;22.10;11.97;;;;;;;;;;5018352;28;20213;-69
2024/01/21 01:17:07;;;;;;;17.30;11.00;;;;;;;;;;5020285;28;20199;-69
2024/01/21 01:19:36;;;;;;;18.50;11.70;;;;;;;;;;5014181;28;20202;-69
2024/01/21 01:22:03;;;;;;;20.90;11.87;;;;;;;;;;5019299;28;20197;-69
2024/01/21 01:24:30;;;;;;;19.77;10.87;;;;;;;;;;5021513;28;20222;-69
2024/01/21 01:26:57;;;;;;;18.37;11.10;;;;;;;;;;5017048;28;20245;-69
2024/01/21 01:29:24;;;;;;;19.23;11.47;;;;;;;;;;5018894;28;20290;-69
2024/01/21 01:31:51;;;;;;;16.87;10.17;;;;;;;;;;5028150;28;20423;-66
2024/01/21 01:34:18;;;;;;;16.97;10.07;;;;;;;;;;5020580;28;20208;-66
2024/01/21 01:36:47;;;;;;;17.50;10.17;;;;;;;;;;5019059;28;20267;-67
2024/01/21 01:39:14;;;;;;;18.13;10.63;;;;;;;;;;5022831;28;20203;-66
2024/01/21 01:41:41;;;;;;;16.67;9.97;;;;;;;;;;5023346;28;20207;-67
2024/01/21 01:44:08;;;;;;;17.53;10.23;;;;;;;;;;5024731;28;20201;-66
2024/01/21 01:46:36;;;;;;;17.60;10.53;;;;;;;;;;5024442;28;20235;-66
2024/01/21 01:49:04;;;;;;;17.67;10.77;;;;;;;;;;5027336;28;20199;-66
2024/01/21 01:51:33;;;;;;;15.47;9.90;;;;;;;;;;5025417;28;20211;-66
2024/01/21 01:54:01;;;;;;;18.47;10.33;;;;;;;;;;5019152;28;20260;-66
2024/01/21 01:56:29;;;;;;;18.43;10.30;;;;;;;;;;5023155;28;20553;-66
2024/01/21 01:58:58;;;;;;;18.53;10.17;;;;;;;;;;5026187;28;20208;-66
2024/01/21 02:01:25;;;;;;;16.13;10.00;;;;;;;;;;5019258;28;20198;-66
2024/01/21 02:03:52;;;;;;;17.93;10.53;;;;;;;;;;5015177;28;20325;-66
2024/01/21 02:06:19;;;;;;;19.47;11.77;;;;;;;;;;5026464;28;20224;-66
2024/01/21 02:08:47;;;;;;;23.03;13.27;;;;;;;;;;5020676;28;20216;-66
2024/01/21 02:11:15;;;;;;;28.70;15.23;;;;;;;;;;5022753;28;20293;-65
2024/01/21 02:13:42;;;;;;;22.13;13.07;;;;;;;;;;5025708;28;20213;-66
2024/01/21 02:16:09;;;;;;;20.73;11.80;;;;;;;;;;5024578;28;20199;-66
2024/01/21 02:18:37;;;;;;;22.23;11.90;;;;;;;;;;5024390;28;20201;-65
2024/01/21 02:21:05;;;;;;;19.17;11.53;;;;;;;;;;5021623;28;20209;-65
2024/01/21 02:23:33;;;;;;;16.40;11.00;;;;;;;;;;5026732;28;20197;-65
2024/01/21 02:26:00;;;;;;;19.53;11.63;;;;;;;;;;5021182;28;20225;-66
2024/01/21 02:28:27;;;;;;;21.57;12.33;;;;;;;;;;5028863;28;20213;-65
2024/01/21 02:30:54;;;;;;;18.50;11.07;;;;;;;;;;5020397;28;20296;-66
2024/01/21 02:33:21;;;;;;;16.70;11.00;;;;;;;;;;5019489;28;20201;-65
2024/01/21 02:35:48;;;;;;;22.87;12.93;;;;;;;;;;5021328;28;20219;-66
2024/01/21 02:38:16;;;;;;;35.20;19.13;;;;;;;;;;5016684;28;20224;-66
2024/01/21 02:40:44;;;;;;;26.87;15.83;;;;;;;;;;5021766;28;20209;-66
2024/01/21 02:43:11;;;;;;;20.70;12.10;;;;;;;;;;5024426;28;20224;-66
2024/01/21 02:45:39;;;;;;;25.53;13.97;;;;;;;;;;5023181;28;20216;-66
2024/01/21 02:48:06;;;;;;;24.47;13.53;;;;;;;;;;5025119;28;20201;-66
2024/01/21 02:50:33;;;;;;;23.03;13.50;;;;;;;;;;5021364;28;20201;-66
2024/01/21 02:53:00;;;;;;;25.10;13.90;;;;;;;;;;5021546;28;20201;-66
2024/01/21 02:55:27;;;;;;;24.93;14.43;;;;;;;;;;5023236;28;20193;-66
2024/01/21 02:57:56;;;;;;;24.13;14.47;;;;;;;;;;5026008;28;20200;-65
2024/01/21 03:00:23;;;;;;;25.70;13.77;;;;;;;;;;5024084;28;20196;-66
2024/01/21 03:02:52;;;;;;;26.70;15.13;;;;;;;;;;5024790;28;20237;-66
2024/01/21 03:05:19;;;;;;;24.43;14.43;;;;;;;;;;5028549;28;20303;-66
2024/01/21 03:07:46;;;;;;;23.53;13.17;;;;;;;;;;5022306;28;20197;-66
2024/01/21 03:10:14;;;;;;;22.30;12.93;;;;;;;;;;5021682;28;20201;-66
2024/01/21 03:12:41;;;;;;;22.13;12.70;;;;;;;;;;5020577;28;20205;-66
2024/01/21 03:15:10;;;;;;;19.03;11.87;;;;;;;;;;5015367;28;20206;-66
2024/01/21 03:17:37;;;;;;;24.73;13.70;;;;;;;;;;5023692;28;20235;-66
2024/01/21 03:20:05;;;;;;;21.93;13.40;;;;;;;;;;5018693;28;20211;-66
2024/01/21 03:22:32;;;;;;;21.13;12.80;;;;;;;;;;5023621;28;20202;-66
2024/01/21 03:24:59;;;;;;;20.93;13.33;;;;;;;;;;5017334;28;20228;-66
2024/01/21 03:27:26;;;;;;;22.27;13.13;;;;;;;;;;5017547;28;20212;-66
2024/01/21 03:29:55;;;;;;;21.77;13.97;;;;;;;;;;5024604;28;20205;-66
2024/01/21 03:32:23;;;;;;;19.30;12.47;;;;;;;;;;5019768;28;20201;-67
2024/01/21 03:34:51;;;;;;;21.57;12.73;;;;;;;;;;5024330;28;20241;-67
2024/01/21 03:37:19;;;;;;;20.33;11.57;;;;;;;;;;5023124;28;20200;-66
2024/01/21 03:39:46;;;;;;;19.63;12.53;;;;;;;;;;5018741;28;20261;-66
2024/01/21 03:42:13;;;;;;;19.23;12.30;;;;;;;;;;5020206;28;20231;-66
2024/01/21 03:44:40;;;;;;;22.50;12.27;;;;;;;;;;5025870;28;20204;-66
2024/01/21 03:47:07;;;;;;;23.03;12.83;;;;;;;;;;5019702;28;20209;-66
2024/01/21 03:49:36;;;;;;;20.93;12.13;;;;;;;;;;5020945;28;20207;-66
2024/01/21 03:52:03;;;;;;;22.27;12.47;;;;;;;;;;5025558;28;20212;-66
2024/01/21 03:54:30;;;;;;;19.83;11.83;;;;;;;;;;5020616;28;20212;-66
2024/01/21 03:56:57;;;;;;;21.60;12.80;;;;;;;;;;5015079;28;20219;-66
2024/01/21 03:59:24;;;;;;;21.53;12.30;;;;;;;;;;5020007;28;20204;-66
2024/01/21 04:01:51;;;;;;;21.30;12.27;;;;;;;;;;5017519;28;20460;-66
2024/01/21 04:04:19;;;;;;;20.10;12.37;;;;;;;;;;5020177;28;20193;-66
2024/01/21 04:06:47;;;;;;;19.67;11.67;;;;;;;;;;5022915;28;20271;-66
2024/01/21 04:09:15;;;;;;;18.50;11.43;;;;;;;;;;5022042;28;20210;-66
2024/01/21 04:11:43;;;;;;;17.17;10.80;;;;;;;;;;5019680;28;20263;-66
2024/01/21 04:14:10;;;;;;;20.50;12.17;;;;;;;;;;5016197;28;20209;-66
2024/01/21 04:16:39;;;;;;;17.70;10.97;;;;;;;;;;5022229;28;20386;-66
2024/01/21 04:19:06;;;;;;;19.23;11.37;;;;;;;;;;5022008;28;20211;-66
2024/01/21 04:21:33;;;;;;;19.20;11.60;;;;;;;;;;5019427;28;20205;-66
2024/01/21 04:24:02;;;;;;;18.77;10.83;;;;;;;;;;5020028;28;20197;-66
2024/01/21 04:26:29;;;;;;;18.53;10.93;;;;;;;;;;5020847;28;20223;-66
2024/01/21 04:28:56;;;;;;;20.67;12.37;;;;;;;;;;5024769;28;20202;-66
2024/01/21 04:31:23;;;;;;;18.63;11.37;;;;;;;;;;5019372;28;20205;-65
2024/01/21 04:33:51;;;;;;;19.43;11.40;;;;;;;;;;5023346;28;20205;-66
2024/01/21 04:36:18;;;;;;;20.03;12.20;;;;;;;;;;5019822;28;20202;-66
2024/01/21 04:38:45;;;;;;;17.23;11.37;;;;;;;;;;5023764;28;20208;-66
2024/01/21 04:41:14;;;;;;;22.43;12.07;;;;;;;;;;5019280;28;20367;-66
2024/01/21 04:43:42;;;;;;;20.27;12.20;;;;;;;;;;5018858;28;20204;-66
2024/01/21 04:46:09;;;;;;;19.73;11.77;;;;;;;;;;5019864;28;20331;-66
2024/01/21 04:48:36;;;;;;;21.27;12.47;;;;;;;;;;5023606;28;20203;-66
2024/01/21 04:51:03;;;;;;;21.13;12.10;;;;;;;;;;5017777;28;20199;-66
2024/01/21 04:53:30;;;;;;;20.47;11.97;;;;;;;;;;5025965;28;20206;-66
2024/01/21 04:55:57;;;;;;;19.00;11.57;;;;;;;;;;5027744;28;20194;-66
2024/01/21 04:58:26;;;;;;;19.50;11.97;;;;;;;;;;5022739;28;20225;-66
2024/01/21 05:00:53;;;;;;;21.03;12.43;;;;;;;;;;5018048;28;20198;-67
2024/01/21 05:03:20;;;;;;;18.33;11.43;;;;;;;;;;5018965;28;20240;-66
2024/01/21 05:05:47;;;;;;;20.27;11.80;;;;;;;;;;5024155;28;20225;-66
2024/01/21 05:08:15;;;;;;;19.23;11.57;;;;;;;;;;5022350;28;20206;-66
2024/01/21 05:10:42;;;;;;;20.77;12.63;;;;;;;;;;5022280;28;20197;-66
2024/01/21 05:13:09;;;;;;;18.67;11.60;;;;;;;;;;5025496;28;20287;-66
2024/01/21 05:15:37;;;;;;;23.43;12.23;;;;;;;;;;5024005;28;20214;-66
2024/01/21 05:18:05;;;;;;;20.10;11.90;;;;;;;;;;5024820;28;20196;-66
2024/01/21 05:20:32;;;;;;;20.27;12.43;;;;;;;;;;5021138;28;20251;-67
2024/01/21 05:22:59;;;;;;;19.57;12.77;;;;;;;;;;5028828;28;20200;-66
2024/01/21 05:25:26;;;;;;;20.93;12.33;;;;;;;;;;5022854;28;20203;-65
2024/01/21 05:27:53;;;;;;;20.33;12.07;;;;;;;;;;5023518;28;20198;-66
2024/01/21 05:30:20;;;;;;;22.47;13.17;;;;;;;;;;5024834;28;20212;-66
2024/01/21 05:32:50;;;;;;;20.50;13.27;;;;;;;;;;5024916;28;20202;-66
2024/01/21 05:35:18;;;;;;;24.87;13.03;;;;;;;;;;5027618;28;20202;-66
2024/01/21 05:37:45;;;;;;;23.83;12.37;;;;;;;;;;5020983;28;20207;-66
2024/01/21 05:40:13;;;;;;;20.83;12.87;;;;;;;;;;5028992;28;20198;-66
2024/01/21 05:42:40;;;;;;;20.80;12.57;;;;;;;;;;5019823;28;20217;-66
2024/01/21 05:45:08;;;;;;;20.90;12.97;;;;;;;;;;5025600;28;20206;-66
2024/01/21 05:47:35;;;;;;;23.37;13.63;;;;;;;;;;5029537;28;20214;-66
2024/01/21 05:50:03;;;;;;;20.43;13.00;;;;;;;;;;5021801;28;20234;-66
2024/01/21 05:52:32;;;;;;;22.03;13.20;;;;;;;;;;5022032;28;20233;-65
2024/01/21 05:55:00;;;;;;;23.20;12.90;;;;;;;;;;5025564;28;20241;-66
2024/01/21 05:57:27;;;;;;;23.73;13.50;;;;;;;;;;5024680;28;20204;-66
2024/01/21 05:59:54;;;;;;;24.33;13.70;;;;;;;;;;5021327;28;20291;-65
2024/01/21 06:02:21;;;;;;;20.20;12.90;;;;;;;;;;5023649;28;20235;-65
2024/01/21 06:04:50;;;;;;;21.10;12.43;;;;;;;;;;5021081;28;20208;-65
2024/01/21 06:07:18;;;;;;;20.50;13.30;;;;;;;;;;5021987;28;20284;-65
2024/01/21 06:09:46;;;;;;;20.77;12.40;;;;;;;;;;5025949;28;20257;-66
2024/01/21 06:12:13;;;;;;;20.37;12.70;;;;;;;;;;5022576;28;20307;-68
2024/01/21 06:14:40;;;;;;;21.67;12.37;;;;;;;;;;5021146;28;20207;-68
2024/01/21 06:17:08;;;;;;;21.07;13.10;;;;;;;;;;5022328;28;20215;-68
2024/01/21 06:19:35;;;;;;;23.00;13.97;;;;;;;;;;5022196;28;20222;-69
2024/01/21 06:22:02;;;;;;;19.33;12.63;;;;;;;;;;5028815;28;20221;-69
2024/01/21 06:24:30;;;;;;;21.07;12.77;;;;;;;;;;5025168;28;20203;-68
2024/01/21 06:26:57;;;;;;;20.43;13.13;;;;;;;;;;5022832;28;20221;-68
2024/01/21 06:29:25;;;;;;;19.47;12.17;;;;;;;;;;5019273;28;20196;-68
2024/01/21 06:31:52;;;;;;;18.70;12.90;;;;;;;;;;5024264;28;20302;-68
2024/01/21 06:34:19;;;;;;;18.90;11.03;;;;;;;;;;5020674;28;20207;-68
2024/01/21 06:36:47;;;;;;;21.50;13.27;;;;;;;;;;5020793;28;20210;-68
2024/01/21 06:39:14;;;;;;;20.83;12.00;;;;;;;;;;5022771;28;20214;-68
2024/01/21 06:41:42;;;;;;;21.57;13.33;;;;;;;;;;5024445;28;20211;-68
2024/01/21 06:44:10;;;;;;;19.93;12.33;;;;;;;;;;5020858;28;20227;-68
2024/01/21 06:46:37;;;;;;;22.37;12.90;;;;;;;;;;5018518;28;20253;-68
2024/01/21 06:49:04;;;;;;;19.40;12.60;;;;;;;;;;5018596;28;20196;-67
2024/01/21 06:51:34;;;;;;;19.60;13.20;;;;;;;;;;5025884;28;20200;-68
2024/01/21 06:54:03;;;;;;;21.60;12.50;;;;;;;;;;5020647;28;21429;-68
2024/01/21 06:56:30;;;;;;;18.77;13.20;;;;;;;;;;5021653;28;20218;-68
2024/01/21 06:58:58;;;;;;;20.13;12.83;;;;;;;;;;5018130;28;20210;-68
2024/01/21 07:01:26;;;;;;;21.80;13.50;;;;;;;;;;5023636;28;20204;-68
2024/01/21 07:03:53;;;;;;;21.17;13.10;;;;;;;;;;5026430;28;20249;-67
2024/01/21 07:06:20;;;;;;;19.60;13.00;;;;;;;;;;5025132;28;20227;-67
2024/01/21 07:08:47;;;;;;;19.47;13.17;;;;;;;;;;5030674;28;20295;-68
2024/01/21 07:11:15;;;;;;;18.60;12.43;;;;;;;;;;5027967;28;20200;-67
2024/01/21 07:13:42;;;;;;;18.40;12.80;;;;;;;;;;5023528;28;20219;-67
2024/01/21 07:16:10;;;;;;;20.80;13.50;;;;;;;;;;5026901;28;20198;-68
2024/01/21 07:18:37;;;;;;;21.50;14.10;;;;;;;;;;5026117;28;20250;-67
2024/01/21 07:21:05;;;;;;;18.93;11.87;;;;;;;;;;5022865;28;20213;-68
2024/01/21 07:23:32;;;;;;;20.33;13.23;;;;;;;;;;5023340;28;20207;-67
2024/01/21 07:25:59;;;;;;;16.43;11.63;;;;;;;;;;5026000;28;20203;-67
2024/01/21 07:28:26;;;;;;;22.20;13.00;;;;;;;;;;5017618;28;20227;-67
2024/01/21 07:30:54;;;;;;;19.27;12.90;;;;;;;;;;5018965;28;20200;-67
2024/01/21 07:33:22;;;;;;;23.43;13.83;;;;;;;;;;5018266;28;20210;-67
2024/01/21 07:35:50;;;;;;;21.27;12.87;;;;;;;;;;5023545;28;20205;-67
2024/01/21 07:38:18;;;;;;;24.17;15.20;;;;;;;;;;5023282;28;20247;-67
2024/01/21 07:40:47;;;;;;;20.20;13.47;;;;;;;;;;5022408;28;20217;-67
2024/01/21 07:43:14;;;;;;;19.77;12.93;;;;;;;;;;5012711;28;20207;-67
2024/01/21 07:45:41;;;;;;;20.40;13.53;;;;;;;;;;5017527;28;20211;-67
2024/01/21 07:48:09;;;;;;;21.17;13.23;;;;;;;;;;5017218;28;20211;-67
2024/01/21 07:50:37;;;;;;;19.47;12.80;;;;;;;;;;5015896;28;20212;-68
2024/01/21 07:53:05;;;;;;;21.27;12.63;;;;;;;;;;5010390;28;20215;-67
2024/01/21 07:55:32;;;;;;;20.07;12.43;;;;;;;;;;5012731;28;20210;-67
2024/01/21 07:58:01;;;;;;;18.97;13.40;;;;;;;;;;5026810;28;20314;-67
2024/01/21 08:00:28;;;;;;;19.70;12.80;;;;;;;;;;5021455;28;20299;-67
2024/01/21 08:02:55;;;;;;;20.60;12.13;;;;;;;;;;5015622;28;20260;-67
2024/01/21 08:05:22;;;;;;;19.57;13.00;;;;;;;;;;5020357;28;20246;-67
2024/01/21 08:07:51;;;;;;;19.17;12.60;;;;;;;;;;5018890;28;20232;-68
2024/01/21 08:10:18;;;;;;;19.03;12.47;;;;;;;;;;5020029;28;20194;-67
2024/01/21 08:12:45;;;;;;;21.70;14.10;;;;;;;;;;5017316;28;20223;-67
2024/01/21 08:15:12;;;;;;;19.27;13.30;;;;;;;;;;5020253;28;20271;-68
2024/01/21 08:17:39;;;;;;;19.23;12.87;;;;;;;;;;5023896;28;20263;-68
2024/01/21 08:20:07;;;;;;;18.27;12.07;;;;;;;;;;5022016;28;20208;-67
2024/01/21 08:22:34;;;;;;;21.00;12.77;;;;;;;;;;5009368;28;20209;-67
2024/01/21 08:25:03;;;;;;;17.87;12.77;;;;;;;;;;5008206;28;20251;-67
2024/01/21 08:27:31;;;;;;;19.80;12.93;;;;;;;;;;5011667;28;20239;-67
2024/01/21 08:29:58;;;;;;;20.90;13.67;;;;;;;;;;5026616;28;20284;-67
2024/01/21 08:32:25;;;;;;;20.57;13.23;;;;;;;;;;5029687;28;20200;-64
2024/01/21 08:34:52;;;;;;;20.20;13.23;;;;;;;;;;5023062;28;20192;-64
2024/01/21 08:37:19;;;;;;;19.13;13.03;;;;;;;;;;5021715;28;20200;-64
2024/01/21 08:39:48;;;;;;;21.50;12.20;;;;;;;;;;5023153;28;20209;-64
2024/01/21 08:42:16;;;;;;;20.47;13.10;;;;;;;;;;5025198;28;20209;-64
2024/01/21 08:44:43;;;;;;;21.93;12.80;;;;;;;;;;5027830;28;20207;-64
2024/01/21 08:47:10;;;;;;;20.43;12.73;;;;;;;;;;5018495;28;20220;-65
2024/01/21 08:49:38;;;;;;;18.27;13.00;;;;;;;;;;5023106;28;20192;-64
2024/01/21 08:52:05;;;;;;;20.07;12.87;;;;;;;;;;5025260;28;20197;-64
2024/01/21 08:54:32;;;;;;;18.37;12.87;;;;;;;;;;5029300;28;20204;-65
2024/01/21 08:56:59;;;;;;;18.97;13.03;;;;;;;;;;5024887;28;20200;-65
2024/01/21 08:59:28;;;;;;;19.60;12.97;;;;;;;;;;5020922;28;20213;-65
2024/01/21 09:01:55;;;;;;;18.60;12.93;;;;;;;;;;5020916;28;20228;-64
2024/01/21 09:04:23;;;;;;;20.60;12.93;;;;;;;;;;5023729;28;20197;-64
2024/01/21 09:06:50;;;;;;;19.53;12.83;;;;;;;;;;5022357;28;20227;-64
2024/01/21 09:09:17;;;;;;;21.93;14.20;;;;;;;;;;5017711;28;20322;-64
2024/01/21 09:11:44;;;;;;;17.43;12.53;;;;;;;;;;5022999;28;20207;-64
2024/01/21 09:14:11;;;;;;;19.27;12.50;;;;;;;;;;5024558;28;20203;-64
2024/01/21 09:16:41;;;;;;;20.13;14.53;;;;;;;;;;5026462;28;20207;-64
2024/01/21 09:19:08;;;;;;;19.67;13.13;;;;;;;;;;5022318;28;20208;-63
2024/01/21 09:21:35;;;;;;;18.70;13.20;;;;;;;;;;5021054;28;20209;-64
2024/01/21 09:24:04;;;;;;;18.03;12.63;;;;;;;;;;5023534;28;20216;-64
2024/01/21 09:26:31;;;;;;;19.70;12.83;;;;;;;;;;5019076;28;20303;-65
2024/01/21 09:28:58;;;;;;;17.73;12.63;;;;;;;;;;5021196;28;20203;-65
2024/01/21 09:31:25;;;;;;;18.90;12.37;;;;;;;;;;5021309;28;20286;-64
2024/01/21 09:33:56;;;;;;;17.07;11.93;;;;;;;;;;5024527;28;20322;-64
2024/01/21 09:36:23;;;;;;;20.33;13.73;;;;;;;;;;5024445;28;20212;-63
2024/01/21 09:38:52;;;;;;;20.33;13.23;;;;;;;;;;5024224;28;20194;-65
2024/01/21 09:41:23;;;;;;;19.30;12.47;;;;;;;;;;5027869;28;20272;-63
2024/01/21 09:43:50;;;;;;;17.67;11.40;;;;;;;;;;5022144;28;20208;-67
2024/01/21 09:46:17;;;;;;;16.07;12.07;;;;;;;;;;5027691;28;20210;-67
2024/01/21 09:48:45;;;;;;;17.23;12.57;;;;;;;;;;5020879;28;20223;-67
2024/01/21 09:51:12;;;;;;;19.53;12.70;;;;;;;;;;5018000;28;20213;-67
2024/01/21 09:53:40;;;;;;;17.77;11.67;;;;;;;;;;5027171;28;20219;-67
2024/01/21 09:56:08;;;;;;;18.07;12.70;;;;;;;;;;5027738;28;20204;-67
2024/01/21 09:58:35;;;;;;;20.83;14.13;;;;;;;;;;5021424;28;20202;-67
2024/01/21 10:01:02;;;;;;;19.03;13.33;;;;;;;;;;5021487;28;20217;-67
2024/01/21 10:03:30;;;;;;;18.83;13.40;;;;;;;;;;5024103;28;20237;-67
2024/01/21 10:05:58;;;;;;;17.50;11.67;;;;;;;;;;5021719;28;20230;-67
2024/01/21 10:08:28;;;;;;;16.97;11.83;;;;;;;;;;5009156;28;20239;-67
2024/01/21 10:10:57;;;;;;;17.17;12.00;;;;;;;;;;5019884;28;20211;-67
2024/01/21 10:13:24;;;;;;;18.07;11.87;;;;;;;;;;5022487;28;20213;-67
2024/01/21 10:15:51;;;;;;;17.90;12.23;;;;;;;;;;5023233;28;20192;-67
2024/01/21 10:18:18;;;;;;;15.70;11.57;;;;;;;;;;5020044;28;20208;-66
2024/01/21 10:20:45;;;;;;;16.33;12.13;;;;;;;;;;5019967;28;20208;-66
2024/01/21 10:23:13;;;;;;;17.67;12.33;;;;;;;;;;5014539;28;20212;-66
2024/01/21 10:25:44;;;;;;;15.30;11.83;;;;;;;;;;5012992;28;20204;-66
2024/01/21 10:28:12;;;;;;;18.20;12.43;;;;;;;;;;5017454;28;20239;-67
2024/01/21 10:30:39;;;;;;;14.93;11.93;;;;;;;;;;5021622;28;20196;-67
2024/01/21 10:33:06;;;;;;;15.23;11.57;;;;;;;;;;5018443;28;20208;-67
2024/01/21 10:35:33;;;;;;;21.13;14.30;;;;;;;;;;5025224;28;20199;-67
2024/01/21 10:38:02;;;;;;;21.23;15.50;;;;;;;;;;5020242;28;20197;-67
2024/01/21 10:40:29;;;;;;;20.43;13.63;;;;;;;;;;5012756;28;20229;-66
2024/01/21 10:42:59;;;;;;;17.37;12.80;;;;;;;;;;5024903;28;20205;-67
2024/01/21 10:45:26;;;;;;;20.20;13.37;;;;;;;;;;5018895;28;20200;-66
2024/01/21 10:47:53;;;;;;;18.27;13.17;;;;;;;;;;5020288;28;20235;-67
2024/01/21 10:50:21;;;;;;;15.87;12.23;;;;;;;;;;5019154;28;20201;-67
2024/01/21 10:52:49;;;;;;;18.03;13.03;;;;;;;;;;5023414;28;20236;-64
2024/01/21 10:55:17;;;;;;;21.70;14.93;;;;;;;;;;5019138;28;20555;-64
2024/01/21 10:57:47;;;;;;;20.83;13.30;;;;;;;;;;5019373;28;20210;-63
2024/01/21 11:00:16;;;;;;;18.83;12.80;;;;;;;;;;5022717;28;20299;-63
2024/01/21 11:02:43;;;;;;;16.27;12.17;;;;;;;;;;5020964;28;20247;-64
2024/01/21 11:05:10;;;;;;;20.07;12.47;;;;;;;;;;5019515;28;20207;-63
2024/01/21 11:07:39;;;;;;;17.37;12.30;;;;;;;;;;5021350;28;20239;-64
2024/01/21 11:10:06;;;;;;;14.17;11.33;;;;;;;;;;5017647;28;20207;-63
2024/01/21 11:12:34;;;;;;;14.77;12.03;;;;;;;;;;5025576;28;20230;-64
2024/01/21 11:15:16;;;;;;;14.57;11.30;;;;;;;;;;5022400;28;20207;-63
2024/01/21 11:17:44;;;;;;;14.20;10.63;;;;;;;;;;5022456;28;20211;-65
2024/01/21 11:20:26;;;;;;;16.33;11.33;;;;;;;;;;5021020;28;20201;-62
2024/01/21 11:22:53;;;;;;;14.90;10.53;;;;;;;;;;5019732;28;20203;-63
2024/01/21 11:25:33;;;;;;;16.43;11.40;;;;;;;;;;5021585;28;20215;-63
2024/01/21 11:28:02;;;;;;;16.23;11.83;;;;;;;;;;5018387;28;20223;-63
2024/01/21 11:30:30;;;;;;;15.57;11.07;;;;;;;;;;5020351;28;20200;-63
2024/01/21 11:33:01;;;;;;;14.80;10.90;;;;;;;;;;5024376;28;20216;-63
2024/01/21 11:35:28;;;;;;;13.90;11.00;;;;;;;;;;5024629;28;20430;-63
2024/01/21 11:37:56;;;;;;;14.90;11.40;;;;;;;;;;5020851;28;20199;-64
2024/01/21 11:40:23;;;;;;;13.90;10.57;;;;;;;;;;5019673;28;20214;-63
2024/01/21 11:42:51;;;;;;;11.93;9.43;;;;;;;;;;5020080;28;20206;-64
2024/01/21 11:45:18;;;;;;;11.10;9.17;;;;;;;;;;5023633;28;20290;-65
2024/01/21 11:47:46;;;;;;;13.43;10.57;;;;;;;;;;5020681;28;20218;-63
2024/01/21 11:50:15;;;;;;;14.57;10.23;;;;;;;;;;5017501;28;20200;-63
2024/01/21 11:52:42;;;;;;;13.63;10.50;;;;;;;;;;5022481;28;20200;-63
2024/01/21 11:55:09;;;;;;;12.93;10.73;;;;;;;;;;5020463;28;20204;-63
2024/01/21 11:57:36;;;;;;;12.70;10.43;;;;;;;;;;5021331;28;20207;-63
2024/01/21 12:00:04;;;;;;;13.77;10.00;;;;;;;;;;5019392;28;20199;-63
2024/01/21 12:02:31;;;;;;;12.70;9.80;;;;;;;;;;5023155;28;20247;-66
2024/01/21 12:04:58;;;;;;;12.37;9.83;;;;;;;;;;5017527;28;20207;-66
2024/01/21 12:07:27;;;;;;;12.43;9.87;;;;;;;;;;5018840;28;20211;-66
2024/01/21 12:09:54;;;;;;;12.23;9.60;;;;;;;;;;5016406;28;20233;-66
2024/01/21 12:12:21;;;;;;;13.23;9.10;;;;;;;;;;5021096;28;20209;-66
2024/01/21 12:14:49;;;;;;;11.87;9.37;;;;;;;;;;5020572;28;20211;-66
2024/01/21 12:17:16;;;;;;;11.37;9.07;;;;;;;;;;5020385;28;20197;-66
2024/01/21 12:19:43;;;;;;;12.50;8.90;;;;;;;;;;5018842;28;20211;-67
2024/01/21 12:22:10;;;;;;;13.00;9.57;;;;;;;;;;5016123;28;20213;-66
2024/01/21 12:24:41;;;;;;;13.57;10.03;;;;;;;;;;5021813;28;20204;-66
2024/01/21 12:27:08;;;;;;;12.00;9.40;;;;;;;;;;5020274;28;20193;-66
2024/01/21 12:29:39;;;;;;;13.27;8.87;;;;;;;;;;5019474;28;20236;-66
2024/01/21 12:32:06;;;;;;;10.13;8.50;;;;;;;;;;5020649;28;20200;-66
2024/01/21 12:34:33;;;;;;;11.33;8.83;;;;;;;;;;5016509;28;20204;-66
2024/01/21 12:37:00;;;;;;;12.20;9.43;;;;;;;;;;5021454;28;20204;-66
2024/01/21 12:39:27;;;;;;;11.17;8.87;;;;;;;;;;5024712;28;20207;-67
2024/01/21 12:41:56;;;;;;;11.10;8.87;;;;;;;;;;5022968;28;20205;-67
2024/01/21 12:44:23;;;;;;;12.00;9.30;;;;;;;;;;5018530;28;20196;-67
2024/01/21 12:46:50;;;;;;;11.37;8.70;;;;;;;;;;5019552;28;20205;-66
2024/01/21 12:49:18;;;;;;;14.93;10.83;;;;;;;;;;5018032;28;20220;-67
2024/01/21 12:51:45;;;;;;;15.57;10.93;;;;;;;;;;5018647;28;20207;-66
2024/01/21 12:54:13;;;;;;;13.60;10.53;;;;;;;;;;5021244;28;20208;-67
2024/01/21 12:56:40;;;;;;;13.33;10.13;;;;;;;;;;5019660;28;20204;-67
2024/01/21 12:59:08;;;;;;;11.60;9.10;;;;;;;;;;5021943;28;20193;-67
2024/01/21 13:01:36;;;;;;;10.43;8.97;;;;;;;;;;5018919;28;20434;-67
2024/01/21 13:04:03;;;;;;;10.60;9.00;;;;;;;;;;5024175;28;20196;-66
2024/01/21 13:06:30;;;;;;;10.03;8.27;;;;;;;;;;5017079;28;20201;-66
2024/01/21 13:08:57;;;;;;;10.77;8.83;;;;;;;;;;5019507;28;20296;-66
2024/01/21 13:11:26;;;;;;;13.53;8.83;;;;;;;;;;5013350;28;20196;-66
2024/01/21 13:13:53;;;;;;;11.27;8.43;;;;;;;;;;5018619;28;20200;-66
2024/01/21 13:16:22;;;;;;;10.33;8.57;;;;;;;;;;5018301;28;20204;-67
2024/01/21 13:18:49;;;;;;;10.60;8.20;;;;;;;;;;5015402;28;20193;-67
2024/01/21 13:21:16;;;;;;;9.97;8.07;;;;;;;;;;5021533;28;20204;-66
2024/01/21 13:23:43;;;;;;;10.07;8.23;;;;;;;;;;5015744;28;20200;-66
2024/01/21 13:26:12;;;;;;;10.67;8.67;;;;;;;;;;5025412;28;20231;-66
2024/01/21 13:30:43;;;;;;;9.57;8.10;;;;;;;;;;5022893;28;20223;-65
2024/01/21 13:31:27;;;;;;;10.97;7.67;;;;;;;;;;5020379;28;20204;-65
2024/01/21 13:33:54;;;;;;;11.20;8.13;;;;;;;;;;5023585;28;20247;-66
2024/01/21 13:36:21;;;;;;;10.07;7.80;;;;;;;;;;5026959;28;20218;-66
2024/01/21 13:38:48;;;;;;;11.27;8.33;;;;;;;;;;5020087;28;20208;-66
2024/01/21 13:41:16;;;;;;;11.23;7.70;;;;;;;;;;5021411;28;20209;-66
2024/01/21 13:43:44;;;;;;;9.23;7.80;;;;;;;;;;5021707;28;20204;-66
2024/01/21 13:46:11;;;;;;;10.27;7.77;;;;;;;;;;5023874;28;20208;-65
2024/01/21 13:48:39;;;;;;;9.53;7.80;;;;;;;;;;5013767;28;20234;-66
2024/01/21 13:51:09;;;;;;;10.23;7.70;;;;;;;;;;5011590;28;20200;-66
2024/01/21 13:53:37;;;;;;;11.17;8.27;;;;;;;;;;5012029;28;20234;-66
2024/01/21 13:56:04;;;;;;;9.60;7.60;;;;;;;;;;5022237;28;20197;-66
2024/01/21 13:58:31;;;;;;;11.23;8.13;;;;;;;;;;5019145;28;20204;-66
2024/01/21 14:00:58;;;;;;;10.30;8.00;;;;;;;;;;5022446;28;20215;-66
2024/01/21 14:03:26;;;;;;;10.20;8.10;;;;;;;;;;5022063;28;20232;-66
2024/01/21 14:05:55;;;;;;;11.07;8.10;;;;;;;;;;5026573;28;20200;-66
2024/01/21 14:08:22;;;;;;;9.13;7.23;;;;;;;;;;5021860;28;20220;-66
2024/01/21 14:10:51;;;;;;;9.90;7.43;;;;;;;;;;5021280;28;20205;-66
2024/01/21 14:13:18;;;;;;;9.03;7.10;;;;;;;;;;5022504;28;20287;-66
2024/01/21 14:15:45;;;;;;;9.53;6.87;;;;;;;;;;5021474;28;20208;-66
2024/01/21 14:18:12;;;;;;;10.17;7.77;;;;;;;;;;5026861;28;20280;-66
2024/01/21 14:20:40;;;;;;;11.73;8.10;;;;;;;;;;5011357;28;20209;-66